Flight Track Log - Related Links

Times and Time Zones

All times are in EDT time to prevent confusion due to time zone crossing. See the FSR411 flight status page for this flight to view local times or setup timezone preferences in your user account.

Time Position Orientation Groundspeed Altitude Reporting Facility
EDT Latitude Longitude Course Direction KTS MPH feet Rate Location/Type
Sat 10:08:22 AM 25.8033 -80.2700 82° East 161 185 700  Level Miami Center
Sat 10:09:15 AM 25.8106 -80.2153 82° East 211 243 2,600 2,870 Climbing Miami Center
Sat 10:10:17 AM 25.8606 -80.1725 38° Northeast 259 298 6,200 3,435 Climbing Miami Center
Sat 10:11:19 AM 25.9142 -80.2256 318° Northwest 265 305 9,700 3,000 Climbing Miami Center
Sat 10:12:21 AM 25.9636 -80.3025 306° West 313 360 12,400 3,048 Climbing Miami Center
Sat 10:13:23 AM 26.0344 -80.4058 307° West 355 409 16,000 3,242 Climbing Miami Center
Sat 10:14:25 AM 26.1033 -80.4925 312° West 378 435 19,100 2,952 Climbing Miami Center
Sat 10:15:27 AM 26.1903 -80.5575 326° Northwest 377 434 22,100 2,710 Climbing Miami Center
Sat 10:16:29 AM 26.2892 -80.6383 324° Northwest 386 444 24,700 2,274 Climbing Miami Center
Sat 10:17:31 AM 26.3906 -80.7164 325° Northwest 411 473 26,800 1,984 Climbing Miami Center
Sat 10:18:33 AM 26.4850 -80.7939 324° Northwest 422 486 28,800 1,839 Climbing Miami Center
Sat 10:19:35 AM 26.5814 -80.8703 325° Northwest 418 481 30,600 1,645 Climbing Miami Center
Sat 10:20:37 AM 26.6869 -80.9422 329° Northwest 423 487 32,200 1,500 Climbing Miami Center
Sat 10:21:39 AM 26.7889 -81.0139 328° Northwest 425 489 33,700 1,392 Climbing Miami Center
Sat 10:22:42 AM 26.8892 -81.0839 328° Northwest 426 490 35,100 1,296 Climbing Miami Center
Sat 10:23:44 AM 26.9897 -81.1556 328° Northwest 428 493 36,400 1,258 Climbing Miami Center
Sat 10:24:46 AM 27.0900 -81.2267 328° Northwest 428 493 37,700 1,306 Climbing Miami Center
Sat 10:25:48 AM 27.1892 -81.2967 328° Northwest 426 490 39,100 1,113 Climbing Miami Center
Sat 10:26:50 AM 27.3075 -81.3808 328° Northwest 416 479 40,000 435 Climbing Miami Center
Sat 10:27:52 AM 27.4133 -81.4550 328° Northwest 423 487 40,000  Level Miami Center
Sat 10:28:54 AM 27.5197 -81.5308 328° Northwest 430 495 40,000  Level Miami Center
Sat 10:29:56 AM 27.6161 -81.6003 327° Northwest 428 493 40,000  Level Miami Center
Sat 10:30:58 AM 27.7208 -81.6739 328° Northwest 426 490 40,000  Level Miami Center
Sat 10:32:01 AM 27.8239 -81.7481 328° Northwest 426 490 40,000  Level Miami Center
Sat 10:33:03 AM 27.9142 -81.8131 328° Northwest 428 493 40,000  Level Miami Center
Sat 10:34:05 AM 28.0350 -81.8992 328° Northwest 428 493 40,000  Level Miami Center
Sat 10:35:07 AM 28.1392 -81.9561 334° Northwest 417 480 40,000  Level Miami Center
Sat 10:36:09 AM 28.2469 -82.0036 339° North 415 478 40,000  Level Miami Center
Sat 10:37:12 AM 28.3600 -82.0550 338° Northwest 414 476 40,000  Level Miami Center
Sat 10:38:14 AM 28.4656 -82.1056 337° Northwest 413 475 40,000  Level Miami Center
Sat 10:39:16 AM 28.5728 -82.1550 338° Northwest 414 476 40,000  Level Miami Center
Sat 10:40:18 AM 28.6806 -82.2053 338° Northwest 415 478 40,000  Level Miami Center
Sat 10:41:21 AM 28.8122 -82.2656 338° Northwest 419 482 40,000  Level Miami Center
Sat 10:42:23 AM 28.9239 -82.3178 338° Northwest 425 489 40,000  Level Miami Center
Sat 10:43:21 AM 29.0275 -82.3653 338° Northwest 413 475 40,000  Level Jacksonville Center
Sat 10:44:21 AM 29.1361 -82.4172 337° Northwest 413 475 40,000  Level Jacksonville Center
Sat 10:45:21 AM 29.2469 -82.4667 339° North 413 475 40,000  Level Jacksonville Center
Sat 10:46:20 AM 29.3536 -82.5186 337° Northwest 413 475 40,000  Level Jacksonville Center
Sat 10:47:20 AM 29.4622 -82.5681 338° Northwest 413 475 40,000  Level Jacksonville Center
Sat 10:48:21 AM 29.5711 -82.6181 338° Northwest 418 481 40,000  Level Jacksonville Center
Sat 10:49:20 AM 29.6692 -82.6703 335° Northwest 423 487 40,000  Level Jacksonville Center
Sat 10:50:21 AM 29.7778 -82.7228 337° Northwest 423 487 40,000  Level Jacksonville Center
Sat 10:51:20 AM 29.8989 -82.7728 340° North 418 481 40,000  Level Jacksonville Center
Sat 10:52:20 AM 29.9931 -82.8278 333° Northwest 413 475 40,000  Level Jacksonville Center
Sat 10:53:21 AM 30.1161 -82.8781 341° North 420 483 40,000  Level Jacksonville Center
Sat 10:54:21 AM 30.2247 -82.9311 337° Northwest 420 483 40,000  Level Jacksonville Center
Sat 10:55:21 AM 30.3292 -82.9817 337° Northwest 420 483 40,000  Level Jacksonville Center
Sat 10:56:21 AM 30.4397 -83.0347 338° Northwest 414 476 40,000  Level Jacksonville Center
Sat 10:57:20 AM 30.5483 -83.0881 337° Northwest 414 476 40,000  Level Jacksonville Center
Sat 10:58:21 AM 30.6567 -83.1389 338° Northwest 414 476 40,000  Level Jacksonville Center
Sat 10:59:21 AM 30.7653 -83.1925 337° Northwest 414 476 40,000 450 Level Jacksonville Center
Sat 11:00:21 AM 30.8569 -83.2386 337° Northwest 406 467 40,900 958 Climbing Jacksonville Center
Sat 11:01:20 AM 30.9611 -83.2922 336° Northwest 401 461 41,900 1,000 Climbing Jacksonville Center
Sat 11:02:21 AM 31.0653 -83.3414 338° Northwest 401 461 42,900 545 Climbing Jacksonville Center
Sat 11:03:21 AM 31.1675 -83.3878 339° North 395 455 43,000 38 Climbing Jacksonville Center
Sat 11:04:58 AM 31.3619 -83.4583 343° North 412 474 43,000  Level Atlanta Center
Sat 11:06:00 AM 31.4717 -83.4958 344° North 412 474 43,000  Level Atlanta Center
Sat 11:07:03 AM 31.5786 -83.5383 341° North 410 472 43,000  Level Atlanta Center
Sat 11:08:05 AM 31.6781 -83.5844 338° Northwest 407 468 43,000  Level Atlanta Center
Sat 11:09:07 AM 31.8019 -83.6472 337° Northwest 405 466 43,000  Level Atlanta Center
Sat 11:10:09 AM 31.9108 -83.6986 338° Northwest 433 498 43,000  Level Atlanta Center
Sat 11:11:11 AM 32.0142 -83.7517 336° Northwest 415 478 43,000  Level Atlanta Center
Sat 11:12:14 AM 32.1167 -83.8036 337° Northwest 405 466 43,000  Level Atlanta Center
Sat 11:13:16 AM 32.2206 -83.8564 337° Northwest 405 466 43,000  Level Atlanta Center
Sat 11:14:18 AM 32.3456 -83.9211 336° Northwest 406 467 43,000  Level Atlanta Center
Sat 11:15:20 AM 32.4508 -83.9744 337° Northwest 409 471 43,000  Level Atlanta Center
Sat 11:16:22 AM 32.5553 -84.0281 337° Northwest 410 472 43,000  Level Atlanta Center
Sat 11:17:24 AM 32.6611 -84.0836 336° Northwest 411 473 43,000  Level Atlanta Center
Sat 11:18:27 AM 32.7658 -84.1381 336° Northwest 411 473 43,000  Level Atlanta Center
Sat 11:19:29 AM 32.8722 -84.1931 337° Northwest 412 474 43,000  Level Atlanta Center
Sat 11:20:31 AM 32.9867 -84.2483 338° Northwest 413 475 43,000  Level Atlanta Center
Sat 11:21:33 AM 33.0933 -84.3044 336° Northwest 414 476 43,000  Level Atlanta Center
Sat 11:22:35 AM 33.2214 -84.3717 336° Northwest 419 482 43,000  Level Atlanta Center
Sat 11:23:37 AM 33.3283 -84.4278 336° Northwest 418 481 43,000  Level Atlanta Center
Sat 11:24:40 AM 33.4339 -84.4856 335° Northwest 418 481 43,000  Level Atlanta Center
Sat 11:25:42 AM 33.5406 -84.5411 337° Northwest 418 481 43,000  Level Atlanta Center
Sat 11:26:44 AM 33.6594 -84.6022 337° Northwest 418 481 43,000  Level Atlanta Center
Sat 11:27:46 AM 33.7675 -84.6600 336° Northwest 421 484 43,000  Level Atlanta Center
Sat 11:28:48 AM 33.8761 -84.7178 336° Northwest 421 484 43,000  Level Atlanta Center
Sat 11:29:50 AM 33.9850 -84.7742 337° Northwest 423 487 43,000  Level Atlanta Center
Sat 11:30:53 AM 34.0942 -84.8342 336° Northwest 428 493 43,000  Level Atlanta Center
Sat 11:31:55 AM 34.2222 -84.9022 336° Northwest 433 498 43,000  Level Atlanta Center
Sat 11:32:57 AM 34.3311 -84.9611 336° Northwest 430 495 43,000  Level Atlanta Center
Sat 11:33:59 AM 34.4400 -85.0197 336° Northwest 431 496 43,000  Level Atlanta Center
Sat 11:35:01 AM 34.5442 -85.0931 330° Northwest 431 496 43,000  Level Atlanta Center
Sat 11:36:04 AM 34.6447 -85.1839 323° Northwest 429 494 43,000  Level Atlanta Center
Sat 11:37:06 AM 34.7414 -85.2706 324° Northwest 429 494 43,000  Level Atlanta Center
Sat 11:38:08 AM 34.8583 -85.3669 326° Northwest 427 491 43,000  Level Atlanta Center
Sat 11:39:10 AM 34.9536 -85.4483 325° Northwest 420 483 43,000  Level Atlanta Center
Sat 11:40:12 AM 35.0481 -85.5294 325° Northwest 413 475 43,000  Level Atlanta Center
Sat 11:41:14 AM 35.1433 -85.6103 325° Northwest 411 473 43,000  Level Atlanta Center
Sat 11:42:16 AM 35.2417 -85.6886 327° Northwest 415 478 43,000  Level Atlanta Center
Sat 11:43:19 AM 35.3486 -85.7464 336° Northwest 420 483 43,000  Level Atlanta Center
Sat 11:44:21 AM 35.4808 -85.8119 338° Northwest 424 488 43,000  Level Atlanta Center
Sat 11:45:23 AM 35.5908 -85.8672 338° Northwest 424 488 43,000  Level Atlanta Center
Sat 11:46:25 AM 35.6989 -85.9233 337° Northwest 423 487 43,000  Level Atlanta Center
Sat 11:47:18 AM 35.7894 -85.9694 338° Northwest 423 487 43,000  Level Indianapolis Center
Sat 11:48:19 AM 35.8986 -86.0253 337° Northwest 423 487 43,000  Level Indianapolis Center
Sat 11:49:21 AM 36.0072 -86.0814 337° Northwest 423 487 43,000  Level Indianapolis Center
Sat 11:50:22 AM 36.1158 -86.1375 337° Northwest 423 487 43,000  Level Indianapolis Center
Sat 11:51:23 AM 36.2242 -86.1919 338° Northwest 422 486 43,000  Level Indianapolis Center
Sat 11:52:25 AM 36.3511 -86.2575 337° Northwest 421 484 43,000  Level Indianapolis Center
Sat 11:53:26 AM 36.4589 -86.3133 337° Northwest 421 484 43,000  Level Indianapolis Center
Sat 11:54:27 AM 36.5678 -86.3700 337° Northwest 421 484 43,000  Level Indianapolis Center
Sat 11:55:29 AM 36.6753 -86.4267 337° Northwest 421 484 43,000  Level Indianapolis Center
Sat 11:56:53 AM 36.8211 -86.5019 338° Northwest 421 484 43,000  Level Memphis Center
Sat 11:57:55 AM 36.9297 -86.5603 337° Northwest 421 484 43,000  Level Memphis Center
Sat 11:58:57 AM 37.0583 -86.6281 337° Northwest 423 487 43,000  Level Memphis Center
Sat 11:59:59 AM 37.1681 -86.6869 337° Northwest 424 488 43,000  Level Memphis Center
Sat 12:01:01 PM 37.2786 -86.7456 337° Northwest 425 489 43,000  Level Memphis Center
Sat 12:02:03 PM 37.3886 -86.8044 337° Northwest 425 489 43,000  Level Memphis Center
Sat 12:02:38 PM 37.4436 -86.8336 337° Northwest 425 489 43,000  Level Indianapolis Center
Sat 12:03:39 PM 37.5558 -86.8939 337° Northwest 425 489 43,000  Level Indianapolis Center
Sat 12:04:40 PM 37.6664 -86.9533 337° Northwest 426 490 43,000 -293 Level Indianapolis Center
Sat 12:05:42 PM 37.7758 -87.0128 337° Northwest 426 490 42,400 -878 Descending Indianapolis Center
Sat 12:06:43 PM 37.8828 -87.0711 337° Northwest 421 484 41,200 -1,574 Descending Indianapolis Center
Sat 12:07:44 PM 38.0122 -87.1417 337° Northwest 418 481 39,200 -1,770 Descending Indianapolis Center
Sat 12:08:45 PM 38.1114 -87.2203 328° Northwest 416 479 37,600 -1,561 Descending Indianapolis Center
Sat 12:09:47 PM 38.2014 -87.3186 319° Northwest 416 479 36,000 -1,561 Descending Indianapolis Center
Sat 12:10:48 PM 38.2922 -87.4197 319° Northwest 421 484 34,400 -984 Descending Indianapolis Center
Sat 12:11:49 PM 38.3814 -87.5208 318° Northwest 421 484 34,000 -780 Descending Indianapolis Center
Sat 12:12:51 PM 38.4700 -87.6203 319° Northwest 422 486 32,800 -1,659 Descending Indianapolis Center
Sat 12:13:52 PM 38.5850 -87.6819 337° Northwest 442 509 30,600 -2,311 Descending Indianapolis Center
Sat 12:14:53 PM 38.7072 -87.7283 344° North 451 519 28,100 -2,439 Descending Indianapolis Center
Sat 12:15:55 PM 38.8281 -87.7764 343° North 451 519 25,600 -2,390 Descending Indianapolis Center
Sat 12:16:56 PM 38.9469 -87.8247 342° North 450 518 23,200 -2,439 Descending Indianapolis Center
Sat 12:17:58 PM 39.0611 -87.8717 342° North 436 502 20,600 -2,488 Descending Indianapolis Center
Sat 12:18:59 PM 39.1706 -87.9164 342° North 418 481 18,100 -2,410 Descending Indianapolis Center
Sat 12:20:00 PM 39.2781 -87.9608 342° North 410 472 15,700 -2,390 Descending Indianapolis Center
Sat 12:21:02 PM 39.3936 -88.0086 342° North 393 452 13,200 -2,195 Descending Indianapolis Center
Sat 12:22:03 PM 39.4931 -88.0481 343° North 379 436 11,200 -1,268 Descending Indianapolis Center
Sat 12:23:05 PM 39.5831 -88.0839 343° North 352 405 10,600 -976 Descending Indianapolis Center
Sat 12:24:06 PM 39.6603 -88.1117 345° North 306 352 9,200 -1,426 Descending Indianapolis Center
Sat 12:25:07 PM 39.7364 -88.1408 344° North 289 333 7,700 -1,171 Descending Indianapolis Center
Sat 12:26:09 PM 39.8081 -88.1733 341° North 280 322 6,800 -683 Descending Indianapolis Center
Sat 12:27:10 PM 39.8908 -88.2142 339° North 274 315 6,300 -1,398 Descending Indianapolis Center
Sat 12:27:52 PM 39.9183 -88.2639 306° West 268 308 4,400 -1,673 Descending Chicago Center
Sat 12:28:54 PM 39.9689 -88.3331 314° West 258 297 3,400 -968 Descending Chicago Center
Sat 12:30:00 PM 40.0333 -88.2667 346° North  Level FlightAware Approximate
Sat 12:37:00 PM 40.0388 -88.2778 346° North  Level Estimated
Sat 12:38:00 PM 40.0388 -88.2778 346° North  Level Estimated
Sat 12:39:00 PM 40.0388 -88.2778 346° North  Level Estimated

Login

Don't have an account? Register now (free) for customized features, flight alerts, and more!